Time;durP1;ratioP1;P1;durP2;ratioP2;P2;SDS_P1;SDS_P2;PMS_P1;PMS_P2;Temp;Humidity;BMP_temperature;BMP_pressure;BME280_temperature;BME280_humidity;BME280_pressure;Samples;Min_cycle;Max_cycle;Signal;HPM_P1;HPM_P2
2023/11/11 00:01:09;;;;;;;2.67;2.58;;;;;;;;;;5044699;28;20080;-64
2023/11/11 00:03:38;;;;;;;2.30;2.20;;;;;;;;;;5046321;28;20053;-65
2023/11/11 00:06:07;;;;;;;2.58;2.47;;;;;;;;;;5047063;28;20063;-64
2023/11/11 00:08:36;;;;;;;2.33;2.22;;;;;;;;;;5045996;28;20088;-64
2023/11/11 00:11:05;;;;;;;2.10;2.00;;;;;;;;;;5047785;28;20099;-63
2023/11/11 00:13:34;;;;;;;2.10;2.00;;;;;;;;;;5046688;28;20091;-64
2023/11/11 00:16:02;;;;;;;2.28;2.17;;;;;;;;;;5045931;28;20132;-63
2023/11/11 00:18:32;;;;;;;2.25;2.15;;;;;;;;;;5047680;28;20057;-66
2023/11/11 00:21:01;;;;;;;2.40;2.30;;;;;;;;;;5047746;28;20110;-65
2023/11/11 00:23:30;;;;;;;2.50;2.30;;;;;;;;;;5048077;28;20779;-63
2023/11/11 00:25:59;;;;;;;2.50;2.40;;;;;;;;;;5047623;28;20069;-66
2023/11/11 00:28:28;;;;;;;2.50;2.30;;;;;;;;;;5048202;28;20579;-64
2023/11/11 00:30:56;;;;;;;2.30;2.20;;;;;;;;;;5047065;28;20056;-66
2023/11/11 00:33:25;;;;;;;2.50;2.40;;;;;;;;;;5047219;28;20166;-64
2023/11/11 00:35:55;;;;;;;2.00;1.90;;;;;;;;;;5047181;28;20049;-63
2023/11/11 00:38:24;;;;;;;2.75;2.55;;;;;;;;;;5046700;28;20126;-63
2023/11/11 00:40:52;;;;;;;2.40;2.30;;;;;;;;;;5047406;28;20520;-63
2023/11/11 00:43:21;;;;;;;2.08;1.98;;;;;;;;;;5047433;28;20713;-63
2023/11/11 00:45:49;;;;;;;2.33;2.22;;;;;;;;;;5044285;28;20045;-65
2023/11/11 00:48:17;;;;;;;2.72;2.53;;;;;;;;;;5046424;28;20045;-64
2023/11/11 00:50:46;;;;;;;2.30;2.20;;;;;;;;;;5046818;28;20056;-64
2023/11/11 00:53:15;;;;;;;2.35;2.25;;;;;;;;;;5045778;28;20110;-65
2023/11/11 00:55:44;;;;;;;2.50;2.30;;;;;;;;;;5046843;28;20041;-67
2023/11/11 00:58:13;;;;;;;2.30;2.20;;;;;;;;;;5045743;28;20057;-63
2023/11/11 01:00:42;;;;;;;2.40;2.30;;;;;;;;;;5046652;28;20045;-65
2023/11/11 01:03:11;;;;;;;2.15;2.05;;;;;;;;;;5046771;28;20045;-63
2023/11/11 01:05:39;;;;;;;3.03;2.53;;;;;;;;;;5034496;28;20085;-63
2023/11/11 01:08:09;;;;;;;2.35;2.25;;;;;;;;;;5046053;28;20120;-63
2023/11/11 01:10:40;;;;;;;2.47;2.38;;;;;;;;;;5044715;28;20103;-63
2023/11/11 01:13:09;;;;;;;2.20;2.10;;;;;;;;;;5046449;28;20536;-61
2023/11/11 01:15:40;;;;;;;2.30;2.20;;;;;;;;;;5045930;28;20148;-64
2023/11/11 01:18:08;;;;;;;2.30;2.20;;;;;;;;;;5046233;28;20051;-64
2023/11/11 01:20:37;;;;;;;2.75;2.65;;;;;;;;;;5048694;28;20076;-63
2023/11/11 01:23:05;;;;;;;2.20;2.10;;;;;;;;;;5051254;28;20123;-63
2023/11/11 01:25:34;;;;;;;2.20;2.10;;;;;;;;;;5046005;28;20044;-65
2023/11/11 01:28:05;;;;;;;2.20;2.10;;;;;;;;;;5049823;28;20410;-64
2023/11/11 01:30:33;;;;;;;2.30;2.20;;;;;;;;;;5050523;28;20063;-63
2023/11/11 01:33:02;;;;;;;2.60;2.50;;;;;;;;;;5049744;28;20044;-65
2023/11/11 01:35:31;;;;;;;2.67;2.58;;;;;;;;;;5045754;28;20060;-67
2023/11/11 01:37:59;;;;;;;2.35;2.25;;;;;;;;;;5050762;28;20138;-63
2023/11/11 01:40:28;;;;;;;2.53;2.42;;;;;;;;;;5049391;28;20049;-65
2023/11/11 01:42:58;;;;;;;2.40;2.30;;;;;;;;;;5050558;28;20388;-64
2023/11/11 01:45:29;;;;;;;2.33;2.22;;;;;;;;;;5048339;28;20072;-64
2023/11/11 01:47:57;;;;;;;2.17;2.08;;;;;;;;;;5049038;28;20126;-64
2023/11/11 01:50:26;;;;;;;2.13;2.03;;;;;;;;;;5048843;28;20076;-64
2023/11/11 01:52:55;;;;;;;2.30;2.20;;;;;;;;;;5049537;28;20052;-64
2023/11/11 01:55:24;;;;;;;2.35;2.25;;;;;;;;;;5050275;28;20468;-64
2023/11/11 01:57:53;;;;;;;1.88;1.85;;;;;;;;;;5049183;28;20041;-64
2023/11/11 02:00:22;;;;;;;2.45;2.35;;;;;;;;;;5049839;28;20114;-66
2023/11/11 02:02:51;;;;;;;2.10;2.00;;;;;;;;;;5048157;28;20053;-66
2023/11/11 02:05:21;;;;;;;2.00;1.90;;;;;;;;;;5048069;28;20080;-66
2023/11/11 02:07:49;;;;;;;2.17;2.08;;;;;;;;;;5049619;28;20472;-65
2023/11/11 02:10:17;;;;;;;2.33;2.22;;;;;;;;;;5049234;28;20123;-66
2023/11/11 02:12:46;;;;;;;2.42;2.33;;;;;;;;;;5050050;28;20430;-66
2023/11/11 02:15:15;;;;;;;2.10;2.00;;;;;;;;;;5049485;28;20048;-66
2023/11/11 02:17:43;;;;;;;2.00;1.90;;;;;;;;;;5046658;28;20049;-68
2023/11/11 02:20:13;;;;;;;2.30;2.20;;;;;;;;;;5049066;28;20049;-65
2023/11/11 02:22:42;;;;;;;2.30;2.20;;;;;;;;;;5042806;28;20052;-65
2023/11/11 02:25:11;;;;;;;2.38;2.28;;;;;;;;;;5047725;28;20099;-65
2023/11/11 02:27:42;;;;;;;2.25;2.15;;;;;;;;;;5048523;28;20049;-63
2023/11/11 02:30:12;;;;;;;2.20;2.10;;;;;;;;;;5049480;28;20147;-65
2023/11/11 02:32:41;;;;;;;2.20;2.10;;;;;;;;;;5048460;28;20048;-68
2023/11/11 02:35:09;;;;;;;2.10;2.00;;;;;;;;;;5048736;28;20391;-66
2023/11/11 02:37:37;;;;;;;2.22;2.13;;;;;;;;;;5047427;28;20076;-65
2023/11/11 02:40:08;;;;;;;2.22;2.05;;;;;;;;;;5048809;28;20044;-65
2023/11/11 02:42:38;;;;;;;1.73;1.73;;;;;;;;;;5048905;28;20445;-65
2023/11/11 02:45:07;;;;;;;1.90;1.80;;;;;;;;;;5049836;28;20051;-65
2023/11/11 02:47:36;;;;;;;1.90;1.80;;;;;;;;;;5047485;28;20057;-64
2023/11/11 02:50:04;;;;;;;1.70;1.70;;;;;;;;;;5049069;28;20130;-64
2023/11/11 02:52:33;;;;;;;2.08;1.98;;;;;;;;;;5046393;28;20053;-64
2023/11/11 02:55:02;;;;;;;2.00;1.90;;;;;;;;;;5049104;28;20056;-64
2023/11/11 02:57:30;;;;;;;2.20;2.10;;;;;;;;;;5048753;28;20107;-65
2023/11/11 03:00:01;;;;;;;1.80;1.80;;;;;;;;;;5049220;28;20425;-67
2023/11/11 03:02:29;;;;;;;1.80;1.80;;;;;;;;;;5048175;28;20110;-64
2023/11/11 03:04:58;;;;;;;2.10;2.00;;;;;;;;;;5046377;28;20147;-65
2023/11/11 03:07:26;;;;;;;1.85;1.80;;;;;;;;;;5047753;28;20049;-64
2023/11/11 03:09:55;;;;;;;1.70;1.70;;;;;;;;;;5048751;28;20049;-66
2023/11/11 03:12:23;;;;;;;1.80;1.80;;;;;;;;;;5048059;28;20048;-65
2023/11/11 03:14:52;;;;;;;2.10;2.00;;;;;;;;;;5048090;28;20052;-65
2023/11/11 03:17:22;;;;;;;2.00;1.90;;;;;;;;;;5041246;28;20049;-67
2023/11/11 03:19:50;;;;;;;1.92;1.85;;;;;;;;;;5048125;28;20041;-66
2023/11/11 03:22:19;;;;;;;2.10;2.00;;;;;;;;;;5048657;28;20048;-65
2023/11/11 03:24:47;;;;;;;1.70;1.70;;;;;;;;;;5048831;28;20049;-66
2023/11/11 03:27:16;;;;;;;1.92;1.90;;;;;;;;;;5047210;28;20049;-66
2023/11/11 03:29:44;;;;;;;2.00;1.90;;;;;;;;;;5045312;28;20041;-67
2023/11/11 03:32:12;;;;;;;1.90;1.80;;;;;;;;;;5047754;28;20045;-66
2023/11/11 03:34:42;;;;;;;1.80;1.70;;;;;;;;;;5047880;28;20457;-67
2023/11/11 03:37:11;;;;;;;1.98;1.88;;;;;;;;;;5047012;28;20049;-68
2023/11/11 03:39:39;;;;;;;2.10;2.00;;;;;;;;;;5047982;28;20518;-68
2023/11/11 03:42:08;;;;;;;1.80;1.80;;;;;;;;;;5047248;28;20049;-66
2023/11/11 03:44:36;;;;;;;1.73;1.70;;;;;;;;;;5047534;28;20406;-66
2023/11/11 03:47:05;;;;;;;1.95;1.85;;;;;;;;;;5047210;28;20049;-67
2023/11/11 03:49:36;;;;;;;2.28;2.17;;;;;;;;;;5047240;28;20053;-65
2023/11/11 03:52:09;;;;;;;1.80;1.80;;;;;;;;;;5047728;28;20472;-67
2023/11/11 03:54:37;;;;;;;1.83;1.83;;;;;;;;;;5048006;28;20060;-65
2023/11/11 03:57:06;;;;;;;1.88;1.80;;;;;;;;;;5045545;28;20051;-67
2023/11/11 03:59:35;;;;;;;1.80;1.70;;;;;;;;;;5048416;28;20486;-67
2023/11/11 04:02:03;;;;;;;1.85;1.75;;;;;;;;;;5047653;28;20049;-66
2023/11/11 04:04:32;;;;;;;1.85;1.83;;;;;;;;;;5048037;28;21157;-66
2023/11/11 04:07:01;;;;;;;2.00;1.90;;;;;;;;;;5046205;28;20072;-67
2023/11/11 04:09:33;;;;;;;1.88;1.88;;;;;;;;;;5046892;28;20304;-67
2023/11/11 04:12:02;;;;;;;1.75;1.73;;;;;;;;;;5047458;28;20586;-66
2023/11/11 04:14:30;;;;;;;1.80;1.80;;;;;;;;;;5047723;28;20508;-68
2023/11/11 04:16:59;;;;;;;1.60;1.60;;;;;;;;;;5046011;28;20414;-67
2023/11/11 04:19:27;;;;;;;1.73;1.73;;;;;;;;;;5046776;28;20087;-67
2023/11/11 04:21:56;;;;;;;1.77;1.77;;;;;;;;;;5047245;28;20559;-67
2023/11/11 04:24:24;;;;;;;1.83;1.83;;;;;;;;;;5048213;28;20049;-69
2023/11/11 04:26:54;;;;;;;1.90;1.80;;;;;;;;;;5047020;28;20068;-69
2023/11/11 04:29:22;;;;;;;1.70;1.70;;;;;;;;;;5024239;28;20457;-68
2023/11/11 04:31:51;;;;;;;1.77;1.75;;;;;;;;;;5029366;28;20537;-67
2023/11/11 04:34:20;;;;;;;1.77;1.77;;;;;;;;;;5023179;28;20100;-67
2023/11/11 04:36:48;;;;;;;1.90;1.90;;;;;;;;;;5027608;28;20045;-67
2023/11/11 04:39:17;;;;;;;1.70;1.70;;;;;;;;;;5020693;28;20578;-66
2023/11/11 04:41:47;;;;;;;2.03;1.92;;;;;;;;;;5027340;28;20053;-66
2023/11/11 04:44:17;;;;;;;1.80;1.80;;;;;;;;;;5027817;28;20050;-65
2023/11/11 04:46:45;;;;;;;2.22;2.13;;;;;;;;;;5022028;28;20057;-66
2023/11/11 04:49:15;;;;;;;2.00;1.90;;;;;;;;;;5029950;28;20799;-66
2023/11/11 04:51:43;;;;;;;1.60;1.60;;;;;;;;;;5020014;28;20077;-67
2023/11/11 04:54:12;;;;;;;1.92;1.90;;;;;;;;;;5025548;28;20053;-65
2023/11/11 04:56:40;;;;;;;2.05;1.98;;;;;;;;;;5030866;28;20056;-65
2023/11/11 04:59:13;;;;;;;1.70;1.70;;;;;;;;;;5031856;28;20539;-66
2023/11/11 05:01:43;;;;;;;1.90;1.80;;;;;;;;;;5027800;28;20045;-67
2023/11/11 05:04:11;;;;;;;1.92;1.85;;;;;;;;;;5028032;28;20445;-66
2023/11/11 05:06:40;;;;;;;1.90;1.80;;;;;;;;;;5029723;28;20085;-67
2023/11/11 05:09:08;;;;;;;2.10;2.00;;;;;;;;;;5027771;28;20057;-67
2023/11/11 05:11:38;;;;;;;1.85;1.80;;;;;;;;;;5031373;28;20049;-66
2023/11/11 05:14:07;;;;;;;2.03;1.92;;;;;;;;;;5031526;28;20052;-66
2023/11/11 05:16:39;;;;;;;1.90;1.90;;;;;;;;;;5032871;28;20483;-65
2023/11/11 05:19:10;;;;;;;1.98;1.92;;;;;;;;;;5029011;28;20045;-67
2023/11/11 05:21:38;;;;;;;1.88;1.88;;;;;;;;;;5029868;28;20128;-66
2023/11/11 05:24:08;;;;;;;1.98;1.90;;;;;;;;;;5030722;28;20111;-66
2023/11/11 05:26:39;;;;;;;2.00;1.90;;;;;;;;;;5031013;28;20099;-64
2023/11/11 05:29:08;;;;;;;1.92;1.90;;;;;;;;;;5030713;28;20045;-68
2023/11/11 05:31:36;;;;;;;1.92;1.92;;;;;;;;;;5028179;28;20042;-67
2023/11/11 05:34:05;;;;;;;1.70;1.70;;;;;;;;;;5029779;28;20053;-66
2023/11/11 05:36:35;;;;;;;1.90;1.90;;;;;;;;;;5030352;28;20111;-67
2023/11/11 05:39:04;;;;;;;1.80;1.80;;;;;;;;;;5029072;28;20048;-65
2023/11/11 05:41:32;;;;;;;1.80;1.80;;;;;;;;;;5035806;28;20490;-65
2023/11/11 05:44:03;;;;;;;1.90;1.90;;;;;;;;;;5030201;28;20041;-67
2023/11/11 05:46:32;;;;;;;2.30;2.20;;;;;;;;;;5029285;28;20058;-64
2023/11/11 05:49:00;;;;;;;2.20;2.10;;;;;;;;;;5035031;28;20065;-65
2023/11/11 05:51:30;;;;;;;1.80;1.80;;;;;;;;;;5032179;28;20671;-64
2023/11/11 05:54:01;;;;;;;1.73;1.73;;;;;;;;;;5030000;28;20046;-66
2023/11/11 05:56:30;;;;;;;1.88;1.88;;;;;;;;;;5028162;28;20146;-65
2023/11/11 05:58:59;;;;;;;1.80;1.80;;;;;;;;;;5029013;28;20041;-65
2023/11/11 06:01:27;;;;;;;2.05;1.95;;;;;;;;;;5038462;28;20052;-65
2023/11/11 06:03:56;;;;;;;2.05;1.95;;;;;;;;;;5030969;28;20095;-65
2023/11/11 06:06:24;;;;;;;1.73;1.73;;;;;;;;;;5028454;28;20057;-66
2023/11/11 06:08:54;;;;;;;1.90;1.90;;;;;;;;;;5033246;28;20049;-67
2023/11/11 06:11:23;;;;;;;2.13;2.03;;;;;;;;;;5027208;28;20041;-66
2023/11/11 06:13:55;;;;;;;1.83;1.80;;;;;;;;;;5028439;28;20103;-66
2023/11/11 06:16:24;;;;;;;2.30;2.20;;;;;;;;;;5029902;28;20049;-69
2023/11/11 06:18:53;;;;;;;1.90;1.90;;;;;;;;;;5026463;28;20121;-68
2023/11/11 06:21:21;;;;;;;2.00;1.90;;;;;;;;;;5028505;28;20491;-67
2023/11/11 06:23:49;;;;;;;2.10;2.00;;;;;;;;;;5022466;28;20535;-68
2023/11/11 06:26:18;;;;;;;2.20;2.10;;;;;;;;;;5025497;28;20495;-69
2023/11/11 06:28:51;;;;;;;2.10;2.00;;;;;;;;;;5029755;28;20064;-68
2023/11/11 06:31:20;;;;;;;2.10;2.00;;;;;;;;;;5029483;28;20402;-66
2023/11/11 06:33:48;;;;;;;2.13;2.03;;;;;;;;;;5021657;28;20057;-66
2023/11/11 06:36:17;;;;;;;2.13;2.03;;;;;;;;;;5027173;28;20053;-65
2023/11/11 06:38:46;;;;;;;2.33;2.13;;;;;;;;;;5031643;28;20053;-67
2023/11/11 06:41:15;;;;;;;2.17;2.08;;;;;;;;;;5023667;28;20053;-66
2023/11/11 06:43:43;;;;;;;2.47;2.30;;;;;;;;;;5022775;28;20116;-66
2023/11/11 06:46:13;;;;;;;2.20;2.10;;;;;;;;;;5029503;28;20057;-65
2023/11/11 06:48:41;;;;;;;2.00;1.90;;;;;;;;;;5029338;28;20053;-65
2023/11/11 06:51:10;;;;;;;2.20;2.10;;;;;;;;;;5029701;28;20049;-66
2023/11/11 06:53:38;;;;;;;1.80;1.80;;;;;;;;;;5029619;28;20050;-66
2023/11/11 06:56:07;;;;;;;1.90;1.80;;;;;;;;;;5029700;28;20045;-67
2023/11/11 06:58:36;;;;;;;2.03;1.92;;;;;;;;;;5029268;28;20514;-68
2023/11/11 07:01:05;;;;;;;2.00;1.90;;;;;;;;;;5025281;28;20058;-68
2023/11/11 07:03:35;;;;;;;2.22;2.13;;;;;;;;;;5028900;28;20499;-67
2023/11/11 07:06:05;;;;;;;2.17;2.05;;;;;;;;;;5023238;28;20060;-64
2023/11/11 07:08:34;;;;;;;2.15;2.05;;;;;;;;;;5023540;28;20107;-64
2023/11/11 07:11:04;;;;;;;2.00;1.90;;;;;;;;;;5025512;28;20125;-66
2023/11/11 07:13:32;;;;;;;2.10;2.00;;;;;;;;;;5028652;28;20506;-65
2023/11/11 07:16:01;;;;;;;2.00;1.90;;;;;;;;;;5026059;28;20111;-64
2023/11/11 07:18:29;;;;;;;2.03;1.92;;;;;;;;;;5028951;28;20045;-64
2023/11/11 07:21:00;;;;;;;2.03;1.92;;;;;;;;;;5027402;28;21163;-65
2023/11/11 07:23:28;;;;;;;2.10;2.00;;;;;;;;;;5033851;28;20053;-64
2023/11/11 07:25:57;;;;;;;2.10;2.00;;;;;;;;;;5028495;28;20525;-64
2023/11/11 07:28:26;;;;;;;2.10;2.00;;;;;;;;;;5022940;28;20388;-63
2023/11/11 07:30:54;;;;;;;1.70;1.70;;;;;;;;;;5026389;28;20467;-64
2023/11/11 07:33:23;;;;;;;2.10;2.00;;;;;;;;;;5026059;28;20483;-65
2023/11/11 07:35:52;;;;;;;1.73;1.73;;;;;;;;;;5027653;28;20041;-64
2023/11/11 07:38:21;;;;;;;2.00;1.90;;;;;;;;;;5027906;28;20134;-66
2023/11/11 07:40:51;;;;;;;1.90;1.80;;;;;;;;;;5025820;28;20045;-67
2023/11/11 07:43:19;;;;;;;2.00;1.90;;;;;;;;;;5025845;28;20468;-66
2023/11/11 07:45:48;;;;;;;2.17;2.08;;;;;;;;;;5032038;28;20047;-65
2023/11/11 07:48:18;;;;;;;2.05;1.95;;;;;;;;;;5023410;28;20284;-67
2023/11/11 07:50:47;;;;;;;2.63;2.42;;;;;;;;;;5028137;28;20148;-67
2023/11/11 07:53:17;;;;;;;2.10;2.00;;;;;;;;;;5030359;28;20057;-64
2023/11/11 07:55:47;;;;;;;2.35;1.90;;;;;;;;;;5028087;28;20458;-64
2023/11/11 07:58:15;;;;;;;2.35;2.25;;;;;;;;;;5024530;28;20045;-65
2023/11/11 08:00:47;;;;;;;2.15;2.05;;;;;;;;;;5022459;28;20458;-64
2023/11/11 08:03:15;;;;;;;2.30;2.20;;;;;;;;;;5016565;28;20141;-66
2023/11/11 08:05:44;;;;;;;2.00;1.90;;;;;;;;;;5019662;28;20160;-70
2023/11/11 08:08:12;;;;;;;2.28;2.10;;;;;;;;;;5024787;28;20049;-65
2023/11/11 08:10:44;;;;;;;2.60;2.50;;;;;;;;;;5021534;28;20056;-63
2023/11/11 08:13:15;;;;;;;2.15;2.05;;;;;;;;;;5025130;28;20057;-70
2023/11/11 08:15:43;;;;;;;2.25;2.08;;;;;;;;;;5016624;28;20053;-66
2023/11/11 08:18:12;;;;;;;1.88;1.77;;;;;;;;;;5025450;28;20419;-64
2023/11/11 08:20:41;;;;;;;1.95;1.85;;;;;;;;;;5026494;28;20161;-64
2023/11/11 08:23:11;;;;;;;2.00;1.90;;;;;;;;;;5022824;28;20144;-64
2023/11/11 08:25:39;;;;;;;2.10;2.00;;;;;;;;;;5020340;28;20499;-63
2023/11/11 08:28:08;;;;;;;2.20;2.10;;;;;;;;;;5010107;28;20053;-63
2023/11/11 08:30:39;;;;;;;2.28;2.17;;;;;;;;;;5018926;28;20076;-67
2023/11/11 08:33:08;;;;;;;1.77;1.77;;;;;;;;;;5026532;28;20453;-63
2023/11/11 08:35:37;;;;;;;1.80;1.70;;;;;;;;;;5024953;28;20551;-66
2023/11/11 08:38:06;;;;;;;2.10;2.00;;;;;;;;;;5018978;28;20141;-65
2023/11/11 08:40:34;;;;;;;2.13;1.80;;;;;;;;;;5023339;28;20123;-65
2023/11/11 08:43:04;;;;;;;1.83;1.80;;;;;;;;;;5025133;28;20052;-66
2023/11/11 08:45:32;;;;;;;2.10;2.00;;;;;;;;;;5025827;28;20053;-66
2023/11/11 08:48:02;;;;;;;2.17;2.08;;;;;;;;;;5027812;28;20072;-64
2023/11/11 08:50:30;;;;;;;2.00;1.90;;;;;;;;;;5014407;28;20045;-64
2023/11/11 08:52:59;;;;;;;1.98;1.88;;;;;;;;;;5029373;28;20096;-64
2023/11/11 08:55:27;;;;;;;2.00;1.90;;;;;;;;;;5025373;28;20483;-64
2023/11/11 08:57:56;;;;;;;2.00;1.90;;;;;;;;;;5019198;28;20046;-64
2023/11/11 09:00:25;;;;;;;2.00;1.90;;;;;;;;;;5025969;28;20131;-64
2023/11/11 09:02:54;;;;;;;2.28;2.17;;;;;;;;;;5024550;28;20045;-64
2023/11/11 09:05:25;;;;;;;1.98;1.88;;;;;;;;;;5028397;28;20456;-65
2023/11/11 09:07:53;;;;;;;2.28;1.90;;;;;;;;;;5023371;28;20313;-64
2023/11/11 09:10:22;;;;;;;1.90;1.80;;;;;;;;;;5027596;28;20126;-67
2023/11/11 09:12:50;;;;;;;1.90;1.80;;;;;;;;;;5022232;28;20084;-67
2023/11/11 09:15:19;;;;;;;2.10;2.00;;;;;;;;;;5010273;28;20418;-66
2023/11/11 09:17:48;;;;;;;1.90;1.80;;;;;;;;;;5021170;28;20050;-65
2023/11/11 09:20:16;;;;;;;2.00;1.90;;;;;;;;;;5024968;28;20653;-66
2023/11/11 09:22:46;;;;;;;1.98;1.85;;;;;;;;;;5025316;28;20131;-65
2023/11/11 09:25:14;;;;;;;2.13;2.03;;;;;;;;;;5028019;28;20045;-67
2023/11/11 09:27:43;;;;;;;1.90;1.80;;;;;;;;;;5022382;28;20073;-69
2023/11/11 09:30:12;;;;;;;1.90;1.90;;;;;;;;;;5023683;28;20542;-67
2023/11/11 09:32:40;;;;;;;1.80;1.70;;;;;;;;;;5020382;28;20387;-64
2023/11/11 09:35:13;;;;;;;2.10;2.00;;;;;;;;;;5029344;28;20102;-65
2023/11/11 09:37:42;;;;;;;1.92;1.83;;;;;;;;;;5022587;28;20120;-65
2023/11/11 09:40:13;;;;;;;1.90;1.80;;;;;;;;;;5026023;28;20062;-68
2023/11/11 09:42:41;;;;;;;2.00;1.90;;;;;;;;;;5024901;28;20131;-68
2023/11/11 09:45:12;;;;;;;2.17;2.08;;;;;;;;;;5027813;28;20067;-66
2023/11/11 09:47:44;;;;;;;2.15;2.05;;;;;;;;;;5026391;28;20130;-66
2023/11/11 09:50:15;;;;;;;2.28;2.17;;;;;;;;;;5027191;28;20053;-65
2023/11/11 09:52:44;;;;;;;2.10;2.00;;;;;;;;;;5028821;28;20048;-62
2023/11/11 09:55:14;;;;;;;2.00;1.90;;;;;;;;;;5028023;28;20430;-65
2023/11/11 09:57:44;;;;;;;1.92;1.83;;;;;;;;;;5034114;28;20400;-64
2023/11/11 10:00:13;;;;;;;1.98;1.88;;;;;;;;;;5048523;28;20549;-66
2023/11/11 10:02:41;;;;;;;1.92;1.83;;;;;;;;;;5048260;28;20041;-67
2023/11/11 10:05:10;;;;;;;2.00;1.88;;;;;;;;;;5049054;28;20064;-65
2023/11/11 10:07:39;;;;;;;1.90;1.80;;;;;;;;;;5047504;28;20560;-66
2023/11/11 10:10:09;;;;;;;1.90;1.80;;;;;;;;;;5047110;28;20045;-66
2023/11/11 10:12:40;;;;;;;2.28;2.17;;;;;;;;;;5048840;28;20053;-67
2023/11/11 10:15:10;;;;;;;2.17;2.08;;;;;;;;;;5046632;28;20527;-67
2023/11/11 10:17:39;;;;;;;2.03;1.92;;;;;;;;;;5039196;28;20102;-67
2023/11/11 10:20:10;;;;;;;2.10;2.00;;;;;;;;;;5046279;28;20573;-66
2023/11/11 10:22:43;;;;;;;2.00;1.90;;;;;;;;;;5049855;28;20122;-66
2023/11/11 10:25:14;;;;;;;2.10;2.00;;;;;;;;;;5048840;28;20384;-67
2023/11/11 10:27:49;;;;;;;2.03;1.92;;;;;;;;;;5048740;28;20044;-66
2023/11/11 10:30:23;;;;;;;2.05;1.95;;;;;;;;;;5041784;28;20048;-68
2023/11/11 10:32:52;;;;;;;2.15;2.05;;;;;;;;;;5047733;28;20380;-66
2023/11/11 10:35:22;;;;;;;2.00;1.90;;;;;;;;;;5048402;28;20543;-68
2023/11/11 10:37:50;;;;;;;1.70;1.70;;;;;;;;;;5047627;28;20056;-67
2023/11/11 10:40:19;;;;;;;2.17;2.08;;;;;;;;;;5044167;28;20049;-66
2023/11/11 10:42:50;;;;;;;1.85;1.75;;;;;;;;;;5041423;28;20044;-67
2023/11/11 10:45:18;;;;;;;2.03;1.92;;;;;;;;;;5046766;28;20045;-67
2023/11/11 10:47:47;;;;;;;2.20;2.00;;;;;;;;;;5045564;28;20499;-67
2023/11/11 10:50:17;;;;;;;2.08;1.98;;;;;;;;;;5050523;28;20272;-67
2023/11/11 10:52:45;;;;;;;1.92;1.83;;;;;;;;;;5043139;28;20056;-69
2023/11/11 10:55:14;;;;;;;2.08;1.98;;;;;;;;;;5044839;28;20486;-68
2023/11/11 10:57:43;;;;;;;1.80;1.70;;;;;;;;;;5046633;28;20052;-66
2023/11/11 11:00:19;;;;;;;1.70;1.70;;;;;;;;;;5046470;28;20048;-69
2023/11/11 11:02:50;;;;;;;2.20;2.10;;;;;;;;;;5044989;28;20052;-66
2023/11/11 11:05:22;;;;;;;2.17;2.00;;;;;;;;;;5044272;28;20056;-64
2023/11/11 11:07:54;;;;;;;2.00;1.90;;;;;;;;;;5044810;28;20210;-67
2023/11/11 11:10:25;;;;;;;1.80;1.70;;;;;;;;;;5045385;28;20126;-66
2023/11/11 11:12:57;;;;;;;2.13;2.03;;;;;;;;;;5045521;28;20041;-65
2023/11/11 11:15:29;;;;;;;2.00;1.90;;;;;;;;;;5044628;28;20060;-65
2023/11/11 11:17:57;;;;;;;2.20;2.10;;;;;;;;;;5042056;28;20171;-67
2023/11/11 11:20:27;;;;;;;2.28;2.17;;;;;;;;;;5047381;28;20052;-63
2023/11/11 11:22:59;;;;;;;1.90;1.80;;;;;;;;;;5047701;28;20049;-64
2023/11/11 11:25:36;;;;;;;1.90;1.80;;;;;;;;;;5047269;28;20163;-65
2023/11/11 11:28:18;;;;;;;2.20;2.10;;;;;;;;;;5045490;28;20049;-65
2023/11/11 11:30:49;;;;;;;2.00;1.90;;;;;;;;;;5043367;28;20049;-65
2023/11/11 11:33:18;;;;;;;1.80;1.80;;;;;;;;;;5041092;28;20064;-64
2023/11/11 11:35:48;;;;;;;2.17;2.08;;;;;;;;;;5038220;28;20132;-66
2023/11/11 11:38:27;;;;;;;2.08;1.98;;;;;;;;;;5041699;28;20565;-66
2023/11/11 11:41:10;;;;;;;2.20;2.10;;;;;;;;;;5042240;28;20049;-64
2023/11/11 11:43:40;;;;;;;2.20;2.10;;;;;;;;;;5034184;28;20136;-65
2023/11/11 11:46:11;;;;;;;2.40;2.20;;;;;;;;;;5045279;28;20473;-65
2023/11/11 11:48:41;;;;;;;2.20;2.10;;;;;;;;;;5043958;28;20068;-65
2023/11/11 11:51:10;;;;;;;1.90;1.83;;;;;;;;;;5043866;28;20053;-66
2023/11/11 11:53:41;;;;;;;2.00;1.90;;;;;;;;;;5041808;28;20049;-64
2023/11/11 11:56:13;;;;;;;2.20;2.00;;;;;;;;;;5040156;28;20620;-67
2023/11/11 11:58:48;;;;;;;2.25;2.15;;;;;;;;;;5039479;28;20090;-65
2023/11/11 12:01:25;;;;;;;1.80;1.70;;;;;;;;;;5043026;28;20100;-67
2023/11/11 12:03:55;;;;;;;2.05;1.95;;;;;;;;;;5041407;28;20064;-66
2023/11/11 12:06:24;;;;;;;2.00;1.90;;;;;;;;;;5043650;28;20053;-64
2023/11/11 12:08:54;;;;;;;2.20;2.10;;;;;;;;;;5039101;28;20045;-64
2023/11/11 12:11:24;;;;;;;2.00;1.90;;;;;;;;;;5041527;28;20041;-64
2023/11/11 12:13:53;;;;;;;1.80;1.70;;;;;;;;;;5045622;28;20413;-65
2023/11/11 12:16:23;;;;;;;2.13;2.00;;;;;;;;;;5043214;28;20044;-66
2023/11/11 12:18:53;;;;;;;1.70;1.70;;;;;;;;;;5041983;28;20472;-66
2023/11/11 12:21:21;;;;;;;2.00;1.90;;;;;;;;;;5044422;28;20208;-65
2023/11/11 12:23:50;;;;;;;2.20;2.10;;;;;;;;;;5045100;28;20052;-66
2023/11/11 12:26:18;;;;;;;2.28;2.08;;;;;;;;;;5047181;28;20551;-64
2023/11/11 12:28:49;;;;;;;2.20;2.05;;;;;;;;;;5040847;28;20049;-67
2023/11/11 12:31:17;;;;;;;2.30;2.20;;;;;;;;;;5044496;28;20490;-65
2023/11/11 12:33:46;;;;;;;2.10;2.00;;;;;;;;;;5046361;28;20049;-64
2023/11/11 12:36:16;;;;;;;2.50;2.40;;;;;;;;;;5044921;28;20432;-64
2023/11/11 12:38:45;;;;;;;1.90;1.80;;;;;;;;;;5044051;28;20618;-63
2023/11/11 12:41:14;;;;;;;2.00;1.90;;;;;;;;;;5044944;28;20485;-64
2023/11/11 12:43:42;;;;;;;3.05;2.35;;;;;;;;;;5044660;28;20045;-66
2023/11/11 12:46:15;;;;;;;2.20;2.10;;;;;;;;;;5038091;28;20049;-65
2023/11/11 12:48:44;;;;;;;2.30;2.17;;;;;;;;;;5044111;28;20048;-66
2023/11/11 12:51:29;;;;;;;2.20;2.10;;;;;;;;;;5041402;28;20048;-66
2023/11/11 12:53:57;;;;;;;2.30;2.20;;;;;;;;;;5043974;28;20118;-65
2023/11/11 12:56:25;;;;;;;2.50;2.30;;;;;;;;;;5040297;28;20312;-65
2023/11/11 12:59:07;;;;;;;2.63;2.42;;;;;;;;;;5041856;28;20134;-66
2023/11/11 13:01:36;;;;;;;2.75;2.65;;;;;;;;;;5041866;28;20521;-66
2023/11/11 13:04:05;;;;;;;2.22;2.13;;;;;;;;;;5040658;28;20080;-65
2023/11/11 13:06:35;;;;;;;2.25;2.10;;;;;;;;;;5035014;28;20385;-65
2023/11/11 13:09:04;;;;;;;2.63;2.42;;;;;;;;;;5035587;28;20087;-65
2023/11/11 13:11:35;;;;;;;2.00;1.90;;;;;;;;;;5043122;28;20053;-67
2023/11/11 13:14:05;;;;;;;2.40;2.30;;;;;;;;;;5037533;28;20037;-66
2023/11/11 13:16:34;;;;;;;2.13;2.03;;;;;;;;;;5041763;28;20045;-65
2023/11/11 13:19:02;;;;;;;2.17;2.08;;;;;;;;;;5044771;28;20122;-67
2023/11/11 13:21:32;;;;;;;2.22;2.13;;;;;;;;;;5046104;28;20440;-68
2023/11/11 13:24:02;;;;;;;2.28;2.10;;;;;;;;;;5045970;28;20052;-68
2023/11/11 13:26:31;;;;;;;2.50;2.40;;;;;;;;;;5040124;28;20048;-67
2023/11/11 13:28:59;;;;;;;2.28;2.17;;;;;;;;;;5046949;28;20045;-64
2023/11/11 13:31:29;;;;;;;2.40;2.30;;;;;;;;;;5048805;28;20127;-65
2023/11/11 13:33:58;;;;;;;2.20;2.10;;;;;;;;;;5029502;28;20073;-62
2023/11/11 13:36:29;;;;;;;2.30;2.20;;;;;;;;;;5043087;28;20492;-65
2023/11/11 13:38:57;;;;;;;2.22;2.13;;;;;;;;;;5045390;28;20471;-65
2023/11/11 13:41:31;;;;;;;2.15;2.05;;;;;;;;;;5047809;28;20049;-65
2023/11/11 13:43:59;;;;;;;2.08;1.98;;;;;;;;;;5032024;28;20045;-64
2023/11/11 13:46:30;;;;;;;2.20;2.10;;;;;;;;;;5040324;28;20049;-65
2023/11/11 13:48:59;;;;;;;2.25;2.15;;;;;;;;;;5046829;28;20090;-64
2023/11/11 13:51:28;;;;;;;2.40;2.20;;;;;;;;;;5045398;28;20426;-64
2023/11/11 13:53:56;;;;;;;2.25;2.15;;;;;;;;;;5046309;28;20080;-63
2023/11/11 13:56:26;;;;;;;2.30;2.20;;;;;;;;;;5046254;28;20056;-66
2023/11/11 13:58:57;;;;;;;2.10;2.00;;;;;;;;;;5039492;28;20053;-62
2023/11/11 14:01:27;;;;;;;2.38;2.28;;;;;;;;;;5042949;28;20076;-63
2023/11/11 14:03:56;;;;;;;2.22;2.10;;;;;;;;;;5037139;28;20059;-64
2023/11/11 14:06:29;;;;;;;2.00;1.90;;;;;;;;;;5046353;28;20383;-63
2023/11/11 14:08:57;;;;;;;2.45;2.35;;;;;;;;;;5039130;28;20052;-63
2023/11/11 14:11:27;;;;;;;2.30;2.17;;;;;;;;;;5044631;28;20498;-64
2023/11/11 14:13:58;;;;;;;2.20;2.10;;;;;;;;;;5047500;28;20048;-65
2023/11/11 14:16:27;;;;;;;2.55;2.45;;;;;;;;;;5040773;28;20056;-64
2023/11/11 14:18:56;;;;;;;2.50;2.40;;;;;;;;;;5041396;28;20466;-63
2023/11/11 14:21:24;;;;;;;2.95;2.67;;;;;;;;;;5045261;28;20052;-64
2023/11/11 14:23:52;;;;;;;2.70;2.50;;;;;;;;;;5039517;28;20132;-65
2023/11/11 14:26:21;;;;;;;3.20;3.00;;;;;;;;;;5039545;28;20053;-67
2023/11/11 14:28:49;;;;;;;3.88;3.60;;;;;;;;;;5040881;28;20122;-63
2023/11/11 14:31:21;;;;;;;2.28;2.17;;;;;;;;;;5047059;28;20045;-64
2023/11/11 14:33:50;;;;;;;2.55;2.45;;;;;;;;;;5044179;28;20052;-64
2023/11/11 14:36:36;;;;;;;2.40;2.30;;;;;;;;;;5044273;28;20084;-64
2023/11/11 14:39:07;;;;;;;2.58;2.47;;;;;;;;;;5043361;28;20044;-63
2023/11/11 14:41:37;;;;;;;2.70;2.50;;;;;;;;;;5051126;28;20044;-63
2023/11/11 14:44:06;;;;;;;2.13;2.03;;;;;;;;;;5048149;28;20060;-63
2023/11/11 14:46:36;;;;;;;2.45;2.35;;;;;;;;;;5038137;28;20349;-64
2023/11/11 14:49:09;;;;;;;2.53;2.40;;;;;;;;;;5051301;28;20517;-63
2023/11/11 14:51:38;;;;;;;2.28;2.17;;;;;;;;;;5048271;28;20048;-64
2023/11/11 14:54:07;;;;;;;2.60;2.40;;;;;;;;;;5048006;28;20049;-61
2023/11/11 14:56:35;;;;;;;2.03;1.92;;;;;;;;;;5046307;28;20057;-64